createdAt,value
2023-04-07T00:02:44.567Z,61.80
2023-04-07T00:07:55.896Z,61.80
2023-04-07T00:12:58.825Z,61.80
2023-04-07T00:18:00.633Z,61.70
2023-04-07T00:23:02.263Z,61.70
2023-04-07T00:28:03.937Z,61.80
2023-04-07T00:33:05.653Z,61.70
2023-04-07T00:38:11.875Z,61.70
2023-04-07T00:43:13.494Z,61.70
2023-04-07T00:48:15.251Z,62.60
2023-04-07T00:53:17.079Z,61.60
2023-04-07T00:58:18.889Z,61.60
2023-04-07T01:03:27.010Z,61.60
2023-04-07T01:08:47.066Z,61.60
2023-04-07T01:13:50.177Z,61.60
2023-04-07T01:18:54.166Z,61.60
2023-04-07T01:24:14.552Z,61.50
2023-04-07T01:29:34.493Z,61.60
2023-04-07T01:34:36.952Z,61.50
2023-04-07T01:39:38.782Z,61.50
2023-04-07T01:44:40.844Z,61.50
2023-04-07T01:49:44.095Z,61.50
2023-04-07T01:54:45.841Z,61.50
2023-04-07T01:59:47.596Z,61.50
2023-04-07T02:04:54.505Z,61.40
2023-04-07T02:09:57.833Z,61.40
2023-04-07T02:15:00.906Z,61.40
2023-04-07T02:20:03.798Z,61.40
2023-04-07T02:25:23.761Z,61.40
2023-04-07T02:30:25.995Z,61.40
2023-04-07T02:35:27.824Z,61.40
2023-04-07T02:40:29.678Z,61.30
2023-04-07T02:45:31.459Z,61.40
2023-04-07T02:50:33.135Z,61.40
2023-04-07T02:55:34.747Z,61.40
2023-04-07T03:00:38.361Z,61.30
2023-04-07T03:05:40.016Z,61.40
2023-04-07T03:10:41.753Z,61.30
2023-04-07T03:15:43.995Z,61.30
2023-04-07T03:20:48.354Z,61.30
2023-04-07T03:25:49.998Z,61.30
2023-04-07T03:30:51.605Z,61.30
2023-04-07T03:35:53.302Z,61.30
2023-04-07T03:40:55.077Z,61.30
2023-04-07T05:03:59.466Z,61.00
2023-04-07T05:09:01.595Z,60.90
2023-04-07T05:14:03.284Z,60.90
2023-04-07T05:19:04.842Z,61.00
2023-04-07T05:24:09.124Z,61.00
2023-04-07T05:29:11.291Z,61.00
2023-04-07T05:34:12.878Z,61.10
2023-04-07T05:39:14.644Z,61.80
2023-04-07T05:44:16.303Z,61.70
2023-04-07T05:49:20.086Z,61.90
2023-04-07T05:54:22.562Z,62.00
2023-04-07T05:59:24.210Z,62.30
2023-04-07T06:04:25.841Z,62.90
2023-04-07T06:09:27.792Z,63.10
2023-04-07T06:14:29.650Z,63.30
2023-04-07T06:19:32.897Z,63.70
2023-04-07T06:24:34.460Z,63.80
2023-04-07T06:29:36.614Z,63.70
2023-04-07T06:34:38.191Z,63.40
2023-04-07T06:39:40.009Z,62.90
2023-04-07T06:44:41.777Z,62.40
2023-04-07T06:49:43.373Z,62.30
2023-04-07T06:54:45.031Z,62.10
2023-04-07T06:59:47.133Z,61.60
2023-04-07T07:04:48.970Z,62.10
2023-04-07T07:09:50.868Z,62.40
2023-04-07T07:14:52.991Z,62.50
2023-04-07T07:19:54.685Z,62.50
2023-04-07T07:24:56.441Z,62.50
2023-04-07T07:29:58.220Z,62.90
2023-04-07T07:34:59.934Z,62.00
2023-04-07T07:40:01.777Z,61.90
2023-04-07T07:45:03.603Z,62.00
2023-04-07T07:50:05.707Z,61.90
2023-04-07T07:55:07.622Z,61.80
2023-04-07T08:00:09.669Z,61.80
2023-04-07T08:05:11.421Z,61.90
2023-04-07T08:10:13.384Z,61.90
2023-04-07T08:15:14.966Z,61.70
2023-04-07T08:20:16.818Z,61.60
2023-04-07T08:25:19.379Z,61.50
2023-04-07T08:30:22.605Z,61.50
2023-04-07T08:35:24.193Z,64.60
2023-04-07T08:40:25.788Z,62.80
2023-04-07T08:45:28.007Z,62.40
2023-04-07T08:50:29.646Z,62.10
2023-04-07T08:55:31.521Z,62.10
2023-04-07T09:00:33.215Z,62.10
2023-04-07T09:05:35.314Z,62.00
2023-04-07T09:10:37.429Z,62.10
2023-04-07T09:15:40.097Z,62.10
2023-04-07T09:21:01.451Z,62.20
2023-04-07T09:26:20.281Z,62.40
2023-04-07T09:31:23.108Z,62.80
2023-04-07T09:36:24.945Z,62.40
2023-04-07T09:41:27.715Z,62.40
2023-04-07T09:46:29.592Z,62.50
2023-04-07T09:51:31.451Z,62.90
2023-04-07T09:56:33.174Z,62.90
2023-04-07T10:01:35.972Z,62.90
2023-04-07T10:06:37.705Z,63.30
2023-04-07T10:11:40.990Z,63.40
2023-04-07T10:16:43.289Z,63.50
2023-04-07T10:21:45.371Z,63.70
2023-04-07T10:26:50.506Z,63.80
2023-04-07T10:31:52.926Z,63.90
2023-04-07T10:37:14.341Z,64.00
2023-04-07T10:42:34.622Z,64.00
2023-04-07T10:47:56.278Z,64.20
2023-04-07T10:53:10.120Z,64.40
2023-04-07T10:58:24.707Z,66.10
2023-04-07T11:03:27.150Z,65.90
2023-04-07T11:08:50.147Z,66.00
2023-04-07T11:13:52.110Z,65.40
2023-04-07T11:18:57.313Z,65.30
2023-04-07T11:23:59.002Z,65.20
2023-04-07T11:29:01.150Z,65.00
2023-04-07T11:34:04.880Z,64.70
2023-04-07T11:39:17.644Z,64.80
2023-04-07T11:44:19.487Z,64.80
2023-04-07T11:49:21.649Z,64.60
2023-04-07T11:54:23.379Z,64.50
2023-04-07T11:59:25.597Z,64.40
2023-04-07T12:04:27.288Z,64.20
2023-04-07T12:09:34.751Z,64.10
2023-04-07T12:14:36.861Z,64.20
2023-04-07T12:19:39.703Z,64.20
2023-04-07T12:24:41.846Z,64.00
2023-04-07T12:29:43.988Z,64.00
2023-04-07T12:34:46.032Z,64.00
2023-04-07T12:39:47.778Z,64.00
2023-04-07T12:44:49.352Z,63.90
2023-04-07T12:49:51.103Z,64.00
2023-04-07T12:54:53.749Z,63.90
2023-04-07T12:59:55.537Z,63.80
2023-04-07T13:04:57.233Z,63.70
2023-04-07T13:09:58.903Z,63.70
2023-04-07T13:15:00.950Z,63.80
2023-04-07T13:20:03.875Z,63.70
2023-04-07T13:25:05.803Z,65.60
2023-04-07T13:30:07.745Z,65.50
2023-04-07T13:35:09.378Z,65.50
2023-04-07T13:40:12.586Z,65.20
2023-04-07T13:45:14.354Z,65.00
2023-04-07T13:50:15.995Z,65.70
2023-04-07T13:55:20.230Z,64.50
2023-04-07T14:00:22.053Z,64.40
2023-04-07T14:05:23.999Z,64.50
2023-04-07T14:10:25.645Z,64.40
2023-04-07T14:15:27.737Z,66.60
2023-04-07T14:20:29.374Z,67.40
2023-04-07T14:25:31.879Z,66.40
2023-04-07T14:30:36.216Z,67.20
2023-04-07T14:35:38.183Z,66.20
2023-04-07T14:40:40.539Z,66.20
2023-04-07T14:45:42.103Z,66.20
2023-04-07T14:50:44.024Z,66.30
2023-04-07T14:55:45.815Z,66.40
2023-04-07T15:00:47.497Z,66.40
2023-04-07T15:05:49.310Z,66.40
2023-04-07T15:10:51.054Z,66.60
2023-04-07T15:15:53.178Z,66.70
2023-04-07T15:20:54.880Z,66.80
2023-04-07T15:25:57.764Z,66.70
2023-04-07T15:30:59.791Z,66.80
2023-04-07T15:36:01.533Z,66.70
2023-04-07T15:41:03.228Z,66.80
2023-04-07T15:46:04.834Z,66.70
2023-04-07T15:51:06.548Z,66.70
2023-04-07T15:56:08.382Z,66.80
2023-04-07T16:01:10.007Z,66.10
2023-04-07T16:06:11.716Z,67.70
2023-04-07T16:11:13.286Z,69.10
2023-04-07T16:16:14.877Z,69.00
2023-04-07T16:21:16.565Z,71.00
2023-04-07T16:26:18.277Z,71.40
2023-04-07T16:31:20.013Z,71.30
2023-04-07T16:36:21.826Z,71.60
2023-04-07T16:41:23.591Z,70.20
2023-04-07T16:46:29.328Z,70.40
2023-04-07T16:51:31.818Z,70.20
2023-04-07T16:56:33.459Z,69.80
2023-04-07T17:01:35.141Z,69.70
2023-04-07T17:06:36.850Z,69.70
2023-04-07T17:11:40.882Z,69.20
2023-04-07T17:16:42.457Z,68.90
2023-04-07T17:21:44.420Z,68.80
2023-04-07T17:26:49.367Z,68.80
2023-04-07T17:31:51.096Z,68.90
2023-04-07T17:36:52.956Z,68.90
2023-04-07T17:41:54.601Z,68.90
2023-04-07T17:46:56.394Z,68.90
2023-04-07T17:51:58.089Z,68.80
2023-04-07T17:57:00.955Z,68.70
2023-04-07T18:02:10.093Z,68.80
2023-04-07T18:07:13.343Z,68.90
2023-04-07T18:12:15.050Z,68.80
2023-04-07T18:17:16.742Z,68.80
2023-04-07T18:22:18.833Z,68.80
2023-04-07T18:27:24.082Z,68.90
2023-04-07T18:32:25.838Z,68.80
2023-04-07T18:37:29.395Z,68.90
2023-04-07T18:42:31.118Z,68.90
2023-04-07T18:47:32.840Z,68.70
2023-04-07T18:52:34.459Z,68.80
2023-04-07T18:57:36.069Z,70.30
2023-04-07T19:07:45.857Z,70.20
2023-04-07T19:12:47.546Z,69.80
2023-04-07T19:17:49.450Z,69.40
2023-04-07T19:22:51.647Z,69.20
2023-04-07T19:27:53.357Z,69.00
2023-04-07T19:32:55.218Z,68.90
2023-04-07T19:37:56.934Z,69.50
2023-04-07T19:42:58.653Z,69.50
2023-04-07T19:48:00.496Z,69.40
2023-04-07T19:53:02.140Z,69.30
2023-04-07T19:58:03.960Z,69.30
2023-04-07T20:03:06.069Z,69.30
2023-04-07T20:08:07.834Z,68.90
2023-04-07T20:13:09.637Z,69.20
2023-04-07T20:18:11.458Z,69.00
2023-04-07T20:23:15.907Z,69.00
2023-04-07T20:28:17.652Z,69.10
2023-04-07T20:33:19.968Z,69.10
2023-04-07T20:38:21.903Z,69.30
2023-04-07T20:43:23.978Z,69.30
2023-04-07T20:48:25.625Z,69.40
2023-04-07T20:53:27.633Z,69.30
2023-04-07T20:58:29.319Z,69.30
2023-04-07T21:03:31.175Z,69.10
2023-04-07T21:08:32.918Z,69.20
2023-04-07T21:13:34.743Z,69.10
2023-04-07T21:18:36.515Z,68.70
2023-04-07T21:23:38.215Z,68.60
2023-04-07T21:28:42.564Z,68.50
2023-04-07T21:33:44.145Z,68.40
2023-04-07T21:38:45.811Z,68.50
2023-04-07T21:43:47.617Z,68.30
2023-04-07T21:48:49.792Z,68.10
2023-04-07T21:53:52.832Z,68.00
2023-04-07T21:58:54.480Z,67.90
2023-04-07T22:03:56.164Z,67.90
2023-04-07T22:09:01.775Z,68.80
2023-04-07T22:14:04.193Z,67.80
2023-04-07T22:19:05.810Z,67.80
2023-04-07T22:24:07.377Z,67.60
2023-04-07T22:29:09.513Z,67.50
2023-04-07T22:34:11.498Z,67.30
2023-04-07T22:39:13.206Z,67.20
2023-04-07T22:44:14.811Z,67.30
2023-04-07T22:49:16.762Z,67.20
2023-04-07T22:54:18.542Z,67.20
2023-04-07T22:59:20.382Z,67.10
2023-04-07T23:04:22.686Z,67.10
2023-04-07T23:09:24.494Z,67.10
2023-04-07T23:14:26.320Z,66.90
2023-04-07T23:19:27.897Z,66.80
2023-04-07T23:24:29.519Z,66.70
2023-04-07T23:29:31.493Z,66.50
2023-04-07T23:34:33.077Z,66.50
2023-04-07T23:39:34.724Z,66.40
2023-04-07T23:44:36.528Z,66.30
2023-04-07T23:49:38.099Z,66.30
2023-04-07T23:54:39.845Z,66.10
2023-04-07T23:59:41.469Z,66.10
